Terminal Aerodrome Forecast
Issued by NWS

Home | Current Version | Previous Version | Graphics & Text | Print | Product List | Glossary On
Versions: 1 2 3 4 5 6 7 8 9 10 11 12 13 14 15 16 17 18 19 20 21 22 23 24 25
162
FTUS43 KBIS 151633 AAA
TAFJMS
TAF AMD
KJMS 151633Z 1517/1612 15008KT P6SM VCSH SCT015 BKN035
     FM152000 14008KT P6SM -SHRA OVC035
     FM152200 12007KT P6SM -SHRA VCTS OVC025CB
     FM160400 07004KT P6SM VCTS OVC008CB
     FM160700 05004KT P6SM OVC005=

USA.gov is the U.S. government's official web portal to all federal, state and local government web resources and services.